Time;durP1;ratioP1;P1;durP2;ratioP2;P2;SDS_P1;SDS_P2;PMS_P1;PMS_P2;Temp;Humidity;BMP_temperature;BMP_pressure;BME280_temperature;BME280_humidity;BME280_pressure;Samples;Min_cycle;Max_cycle;Signal;HPM_P1;HPM_P2
2022/12/07 00:00:54;;;;;;;;;;;4.20;99.90;;;;;;5047726;28;19933;-74
2022/12/07 00:03:19;;;;;;;;;;;4.10;99.90;;;;;;5031934;28;19990;-74
2022/12/07 00:05:45;;;;;;;;;;;4.20;99.90;;;;;;5014712;28;19972;-74
2022/12/07 00:08:10;;;;;;;;;;;4.10;99.90;;;;;;5047123;28;19925;-74
2022/12/07 00:10:36;;;;;;;;;;;4.10;99.90;;;;;;5046534;28;19925;-73
2022/12/07 00:13:02;;;;;;;;;;;4.20;99.90;;;;;;5047530;28;20322;-73
2022/12/07 00:15:27;;;;;;;;;;;4.00;99.90;;;;;;5047125;28;20474;-74
2022/12/07 00:17:53;;;;;;;;;;;4.10;99.90;;;;;;5030599;28;20298;-72
2022/12/07 00:20:18;;;;;;;;;;;4.00;99.90;;;;;;5030603;28;19974;-72
2022/12/07 00:22:44;;;;;;;;;;;4.00;99.90;;;;;;5047491;28;19975;-73
2022/12/07 00:25:09;;;;;;;;;;;4.00;99.90;;;;;;5047194;28;20323;-73
2022/12/07 00:27:35;;;;;;;;;;;4.00;99.90;;;;;;5047094;28;19925;-73
2022/12/07 00:30:00;;;;;;;;;;;4.00;99.90;;;;;;5063882;28;19929;-73
2022/12/07 00:32:26;;;;;;;;;;;4.00;99.90;;;;;;5014089;28;20012;-72
2022/12/07 00:34:52;;;;;;;;;;;4.30;99.90;;;;;;5031337;28;20294;-74
2022/12/07 00:37:17;;;;;;;;;;;4.00;99.90;;;;;;5030045;28;20475;-73
2022/12/07 00:39:43;;;;;;;;;;;4.20;99.90;;;;;;5031058;28;19925;-73
2022/12/07 00:42:08;;;;;;;;;;;4.10;99.90;;;;;;5030630;28;19987;-74
2022/12/07 00:44:34;;;;;;;;;;;4.10;99.90;;;;;;5030250;28;19933;-73
2022/12/07 00:46:59;;;;;;;;;;;4.50;99.90;;;;;;5063747;28;19932;-74
2022/12/07 00:49:25;;;;;;;;;;;4.20;99.90;;;;;;5031170;28;20279;-73
2022/12/07 00:51:50;;;;;;;;;;;4.70;99.90;;;;;;5046861;28;20221;-74
2022/12/07 00:54:16;;;;;;;;;;;4.40;99.90;;;;;;5031303;28;20011;-74
2022/12/07 00:56:42;;;;;;;;;;;4.20;99.90;;;;;;5046322;28;19998;-72
2022/12/07 00:59:11;;;;;;;;;;;4.30;99.90;;;;;;5046699;28;19925;-74
2022/12/07 01:01:37;;;;;;;;;;;4.20;99.90;;;;;;5029550;28;20284;-73
2022/12/07 01:04:03;;;;;;;;;;;4.20;99.90;;;;;;5046680;28;19932;-73
2022/12/07 01:06:29;;;;;;;;;;;4.20;99.90;;;;;;5046373;28;20090;-73
2022/12/07 01:08:55;;;;;;;;;;;4.20;99.90;;;;;;5046140;28;19925;-73
2022/12/07 01:11:22;;;;;;;;;;;4.20;99.90;;;;;;5030838;28;20297;-72
2022/12/07 01:13:49;;;;;;;;;;;4.10;99.90;;;;;;5029740;28;20019;-73
2022/12/07 01:16:16;;;;;;;;;;;4.10;99.90;;;;;;5031082;28;19928;-74
2022/12/07 01:18:42;;;;;;;;;;;4.10;99.90;;;;;;5046163;28;19964;-74
2022/12/07 01:21:10;;;;;;;;;;;4.70;99.90;;;;;;5046650;28;19961;-73
2022/12/07 01:23:35;;;;;;;;;;;4.00;99.90;;;;;;5012773;28;19925;-74
2022/12/07 01:26:03;;;;;;;;;;;4.10;99.90;;;;;;5013484;28;19933;-73
2022/12/07 01:28:28;;;;;;;;;;;4.20;99.90;;;;;;5046168;28;19921;-73
2022/12/07 01:31:01;;;;;;;;;;;3.90;99.90;;;;;;5046467;28;20015;-73
2022/12/07 01:33:28;;;;;;;;;;;3.90;99.90;;;;;;5012773;28;19929;-73
2022/12/07 01:35:54;;;;;;;;;;;4.00;99.90;;;;;;5013114;28;19949;-73
2022/12/07 01:38:19;;;;;;;;;;;4.00;99.90;;;;;;5029139;28;19925;-73
2022/12/07 01:40:45;;;;;;;;;;;4.00;99.90;;;;;;5030473;28;19925;-73
2022/12/07 01:43:18;;;;;;;;;;;4.10;99.90;;;;;;5046082;28;19935;-74
2022/12/07 01:45:44;;;;;;;;;;;4.10;99.90;;;;;;5045497;28;19925;-74
2022/12/07 01:48:10;;;;;;;;;;;4.10;99.90;;;;;;5029497;28;20398;-73
2022/12/07 01:50:37;;;;;;;;;;;4.20;99.90;;;;;;5012810;28;20260;-72
2022/12/07 01:53:04;;;;;;;;;;;4.20;99.90;;;;;;5030281;28;19925;-72
2022/12/07 01:55:30;;;;;;;;;;;4.10;99.90;;;;;;5029102;28;19931;-72
2022/12/07 01:57:56;;;;;;;;;;;4.20;99.90;;;;;;5029370;28;20104;-72
2022/12/07 02:00:22;;;;;;;;;;;4.10;99.90;;;;;;5045935;28;20429;-72
2022/12/07 02:02:53;;;;;;;;;;;4.10;99.90;;;;;;4996179;28;19979;-73
2022/12/07 02:05:19;;;;;;;;;;;4.10;99.90;;;;;;5012796;28;20019;-74
2022/12/07 02:07:46;;;;;;;;;;;4.10;99.90;;;;;;5028421;28;19925;-74
2022/12/07 02:10:16;;;;;;;;;;;4.00;99.90;;;;;;5030211;28;19972;-73
2022/12/07 02:12:42;;;;;;;;;;;4.00;99.90;;;;;;4995405;28;19925;-73
2022/12/07 02:15:08;;;;;;;;;;;3.90;99.90;;;;;;5045430;28;19989;-73
2022/12/07 02:17:40;;;;;;;;;;;3.90;99.90;;;;;;5029780;28;20311;-73
2022/12/07 02:20:11;;;;;;;;;;;3.90;99.90;;;;;;5061788;28;19925;-72
2022/12/07 02:22:52;;;;;;;;;;;3.80;99.90;;;;;;5045245;28;19944;-72
2022/12/07 02:25:30;;;;;;;;;;;3.80;99.90;;;;;;5045479;28;19964;-73
2022/12/07 02:28:06;;;;;;;;;;;3.70;99.90;;;;;;5029670;28;19987;-72
2022/12/07 02:30:34;;;;;;;;;;;3.70;99.90;;;;;;5045562;28;19925;-72
2022/12/07 02:33:05;;;;;;;;;;;3.70;99.90;;;;;;5045399;28;20281;-72
2022/12/07 02:35:45;;;;;;;;;;;3.70;99.90;;;;;;5045388;28;19932;-73
2022/12/07 02:38:14;;;;;;;;;;;3.60;99.90;;;;;;5045016;28;19982;-73
2022/12/07 02:40:40;;;;;;;;;;;3.60;99.90;;;;;;4995753;28;19971;-72
2022/12/07 02:43:20;;;;;;;;;;;3.60;99.90;;;;;;5044824;28;19925;-73
2022/12/07 02:45:47;;;;;;;;;;;3.60;99.90;;;;;;5044986;28;19929;-74
2022/12/07 02:48:14;;;;;;;;;;;3.80;99.90;;;;;;5011761;28;19925;-74
2022/12/07 02:50:44;;;;;;;;;;;3.70;99.90;;;;;;5044954;28;19932;-73
2022/12/07 02:53:28;;;;;;;;;;;3.80;99.90;;;;;;5029436;28;19960;-72
2022/12/07 02:55:53;;;;;;;;;;;3.80;99.90;;;;;;5044915;28;19925;-73
2022/12/07 02:58:32;;;;;;;;;;;3.90;99.90;;;;;;5029676;28;20316;-74
2022/12/07 03:01:08;;;;;;;;;;;3.90;99.90;;;;;;5044705;28;20326;-72
2022/12/07 03:03:35;;;;;;;;;;;3.90;99.90;;;;;;5044876;28;19925;-72
2022/12/07 03:06:15;;;;;;;;;;;3.90;99.90;;;;;;5029143;28;20348;-74
2022/12/07 03:08:55;;;;;;;;;;;3.90;99.90;;;;;;5044262;28;19929;-73
2022/12/07 03:11:20;;;;;;;;;;;3.80;99.90;;;;;;5044599;28;20353;-73
2022/12/07 03:14:03;;;;;;;;;;;3.80;99.90;;;;;;5044244;28;19973;-71
2022/12/07 03:16:31;;;;;;;;;;;3.70;99.90;;;;;;5044691;28;19932;-73
2022/12/07 03:19:07;;;;;;;;;;;3.70;99.90;;;;;;5044294;28;20355;-72
2022/12/07 03:21:41;;;;;;;;;;;3.70;99.90;;;;;;5044504;28;19947;-73
2022/12/07 03:24:09;;;;;;;;;;;3.50;99.90;;;;;;5028034;28;20271;-74
2022/12/07 03:26:36;;;;;;;;;;;3.60;99.90;;;;;;5044330;28;19925;-74
2022/12/07 03:29:07;;;;;;;;;;;4.50;99.90;;;;;;5044088;28;19925;-73
2022/12/07 03:31:35;;;;;;;;;;;3.70;99.90;;;;;;5028125;28;20016;-73
2022/12/07 03:34:01;;;;;;;;;;;3.70;99.90;;;;;;5044228;28;20386;-73
2022/12/07 03:36:34;;;;;;;;;;;3.80;99.90;;;;;;5044348;28;19925;-73
2022/12/07 03:39:09;;;;;;;;;;;3.80;99.90;;;;;;5028472;28;19980;-73
2022/12/07 03:41:36;;;;;;;;;;;3.80;99.90;;;;;;5028103;28;19933;-72
2022/12/07 03:44:02;;;;;;;;;;;4.20;99.90;;;;;;5044144;28;20008;-72
2022/12/07 03:46:28;;;;;;;;;;;3.80;99.90;;;;;;5027937;28;20020;-74
2022/12/07 03:48:53;;;;;;;;;;;3.80;99.90;;;;;;5043966;28;19925;-74
2022/12/07 03:51:19;;;;;;;;;;;4.50;99.90;;;;;;5061116;28;19972;-74
2022/12/07 03:53:49;;;;;;;;;;;3.80;99.90;;;;;;5043842;28;19931;-72
2022/12/07 03:56:15;;;;;;;;;;;3.70;99.90;;;;;;5028733;28;19926;-74
2022/12/07 03:58:41;;;;;;;;;;;3.70;99.90;;;;;;5028796;28;19977;-74
2022/12/07 04:01:06;;;;;;;;;;;3.70;99.90;;;;;;4994745;28;19925;-74
2022/12/07 04:03:32;;;;;;;;;;;3.70;99.90;;;;;;5060865;28;20377;-73
2022/12/07 04:05:58;;;;;;;;;;;3.60;99.90;;;;;;5028580;28;20279;-73
2022/12/07 04:08:24;;;;;;;;;;;3.60;99.90;;;;;;5040861;27;19930;-74
2022/12/07 04:10:50;;;;;;;;;;;3.60;99.90;;;;;;4988790;28;19926;-74
2022/12/07 04:13:15;;;;;;;;;;;3.50;99.90;;;;;;4971965;28;19926;-75
2022/12/07 04:15:41;;;;;;;;;;;3.50;99.90;;;;;;4987873;28;20302;-74
2022/12/07 04:18:07;;;;;;;;;;;3.50;99.90;;;;;;5004035;28;20329;-74
2022/12/07 04:20:32;;;;;;;;;;;3.40;99.90;;;;;;5020292;28;19926;-74
2022/12/07 04:22:58;;;;;;;;;;;3.50;99.90;;;;;;4987931;28;19926;-74
2022/12/07 04:25:23;;;;;;;;;;;3.40;99.90;;;;;;4971784;28;20407;-73
2022/12/07 04:27:49;;;;;;;;;;;3.30;99.90;;;;;;4987892;28;19933;-73
2022/12/07 04:30:14;;;;;;;;;;;3.40;99.90;;;;;;5020807;28;20362;-74
2022/12/07 04:32:40;;;;;;;;;;;3.40;99.90;;;;;;5004461;28;19930;-75
2022/12/07 04:35:06;;;;;;;;;;;3.40;99.90;;;;;;5004876;28;19936;-74
2022/12/07 04:37:32;;;;;;;;;;;3.40;99.90;;;;;;4992064;28;19933;-73
2022/12/07 04:39:58;;;;;;;;;;;3.50;99.90;;;;;;5006767;28;19925;-73
2022/12/07 04:42:23;;;;;;;;;;;3.40;99.90;;;;;;4992313;28;20083;-74
2022/12/07 04:44:49;;;;;;;;;;;3.50;99.90;;;;;;5023939;28;19926;-73
2022/12/07 04:47:14;;;;;;;;;;;3.50;99.90;;;;;;5023712;28;19926;-73
2022/12/07 04:49:40;;;;;;;;;;;4.10;99.90;;;;;;4992435;28;19952;-74
2022/12/07 04:52:05;;;;;;;;;;;3.50;99.90;;;;;;5007039;28;19926;-74
2022/12/07 04:54:31;;;;;;;;;;;3.60;99.90;;;;;;4992164;28;20021;-74
2022/12/07 04:56:57;;;;;;;;;;;3.40;99.90;;;;;;4990356;28;20269;-74
2022/12/07 04:59:22;;;;;;;;;;;3.50;99.90;;;;;;5023407;28;19930;-73
2022/12/07 05:01:48;;;;;;;;;;;3.40;99.90;;;;;;5023505;28;19948;-73
2022/12/07 05:04:13;;;;;;;;;;;3.30;99.90;;;;;;4958439;28;19971;-74
2022/12/07 05:06:39;;;;;;;;;;;3.30;99.90;;;;;;5023865;28;20031;-75
2022/12/07 05:09:04;;;;;;;;;;;3.20;99.90;;;;;;5039699;28;19932;-74
2022/12/07 05:11:39;;;;;;;;;;;3.20;99.90;;;;;;5046736;28;19993;-74
2022/12/07 05:14:06;;;;;;;;;;;3.20;99.90;;;;;;5046310;28;19932;-73
2022/12/07 05:16:32;;;;;;;;;;;3.10;99.90;;;;;;5046578;28;19932;-74
2022/12/07 05:18:58;;;;;;;;;;;3.10;99.90;;;;;;5029704;28;19929;-73
2022/12/07 05:21:24;;;;;;;;;;;3.00;99.90;;;;;;5046391;28;19925;-75
2022/12/07 05:23:50;;;;;;;;;;;3.00;99.90;;;;;;5013794;28;19941;-74
2022/12/07 05:26:16;;;;;;;;;;;3.00;99.90;;;;;;5030440;28;19931;-74
2022/12/07 05:28:41;;;;;;;;;;;2.90;99.90;;;;;;5046245;28;20342;-74
2022/12/07 05:31:07;;;;;;;;;;;3.20;99.90;;;;;;5045839;28;19925;-74
2022/12/07 05:33:32;;;;;;;;;;;2.90;99.90;;;;;;5029638;28;19974;-74
2022/12/07 05:35:58;;;;;;;;;;;2.90;99.90;;;;;;5029523;28;19968;-75
2022/12/07 05:38:24;;;;;;;;;;;2.80;99.90;;;;;;5045920;28;19925;-74
2022/12/07 05:40:50;;;;;;;;;;;2.90;99.90;;;;;;5012919;28;20421;-73
2022/12/07 05:43:16;;;;;;;;;;;2.80;99.90;;;;;;5045738;28;19925;-75
2022/12/07 05:45:41;;;;;;;;;;;3.10;99.90;;;;;;5013225;28;19932;-74
2022/12/07 05:48:07;;;;;;;;;;;2.80;99.90;;;;;;5012278;28;20052;-74
2022/12/07 05:50:33;;;;;;;;;;;2.80;99.90;;;;;;5062810;28;19948;-74
2022/12/07 05:52:58;;;;;;;;;;;2.80;99.90;;;;;;5046038;28;19976;-73
2022/12/07 05:55:24;;;;;;;;;;;2.80;99.90;;;;;;5045800;28;20402;-74
2022/12/07 06:00:34;;;;;;;;;;;2.70;99.90;;;;;;5060198;28;19929;-74
2022/12/07 06:03:01;;;;;;;;;;;2.80;99.90;;;;;;5029662;28;20405;-74
2022/12/07 06:05:27;;;;;;;;;;;2.80;99.90;;;;;;5012469;28;20371;-73
2022/12/07 06:07:52;;;;;;;;;;;2.70;99.90;;;;;;5045987;28;20016;-74
2022/12/07 06:10:18;;;;;;;;;;;2.80;99.90;;;;;;5029005;28;19932;-73
2022/12/07 06:12:46;;;;;;;;;;;2.80;99.90;;;;;;5046071;28;19970;-74
2022/12/07 06:15:12;;;;;;;;;;;2.80;99.90;;;;;;5045680;28;19926;-73
2022/12/07 06:17:38;;;;;;;;;;;2.90;99.90;;;;;;5046065;28;19925;-74
2022/12/07 06:20:04;;;;;;;;;;;3.00;99.90;;;;;;5045499;28;19974;-74
2022/12/07 06:22:30;;;;;;;;;;;3.00;99.90;;;;;;5045756;28;19929;-73
2022/12/07 06:24:55;;;;;;;;;;;3.00;99.90;;;;;;5045729;28;19974;-73
2022/12/07 06:27:21;;;;;;;;;;;3.00;99.90;;;;;;5045408;28;20366;-74
2022/12/07 06:29:47;;;;;;;;;;;3.00;99.90;;;;;;5029136;28;19925;-73
2022/12/07 06:32:12;;;;;;;;;;;3.10;99.90;;;;;;5061987;28;19998;-72
2022/12/07 06:34:38;;;;;;;;;;;2.90;99.90;;;;;;5030008;28;19926;-73
2022/12/07 06:37:04;;;;;;;;;;;2.90;99.90;;;;;;5012617;28;19932;-73
2022/12/07 06:39:29;;;;;;;;;;;2.90;99.90;;;;;;5028410;28;20374;-73
2022/12/07 06:41:55;;;;;;;;;;;2.90;99.90;;;;;;5029853;28;19925;-73
2022/12/07 06:44:21;;;;;;;;;;;3.40;99.90;;;;;;5028158;28;20123;-73
2022/12/07 06:46:47;;;;;;;;;;;2.80;99.90;;;;;;5045480;28;19930;-74
2022/12/07 06:49:13;;;;;;;;;;;2.60;99.90;;;;;;4995938;28;20393;-73
2022/12/07 06:51:41;;;;;;;;;;;2.80;99.90;;;;;;5012461;28;20335;-74
2022/12/07 06:57:28;;;;;;;;;;;2.80;99.90;;;;;;5029190;28;20266;-73
2022/12/07 06:59:54;;;;;;;;;;;2.70;99.90;;;;;;5060585;28;19927;-73
2022/12/07 07:02:19;;;;;;;;;;;2.70;99.90;;;;;;5061337;28;20358;-72
2022/12/07 07:04:45;;;;;;;;;;;2.70;99.90;;;;;;5044755;28;19963;-72
2022/12/07 07:07:10;;;;;;;;;;;2.80;99.90;;;;;;5044890;28;20281;-73
2022/12/07 07:09:36;;;;;;;;;;;2.90;99.90;;;;;;5043894;28;19948;-74
2022/12/07 07:12:02;;;;;;;;;;;3.10;99.90;;;;;;5061585;28;19925;-74
2022/12/07 07:14:27;;;;;;;;;;;2.90;99.90;;;;;;5044737;28;20366;-72
2022/12/07 07:16:53;;;;;;;;;;;3.00;99.90;;;;;;5044664;28;20031;-76
2022/12/07 07:19:18;;;;;;;;;;;2.90;99.90;;;;;;5028956;28;19925;-74
2022/12/07 07:21:44;;;;;;;;;;;3.00;99.90;;;;;;5061364;28;19944;-73
2022/12/07 07:24:09;;;;;;;;;;;3.10;99.90;;;;;;5028268;28;20382;-73
2022/12/07 07:26:35;;;;;;;;;;;3.30;99.90;;;;;;5044283;28;19985;-72
2022/12/07 07:29:01;;;;;;;;;;;3.10;99.90;;;;;;5044127;28;19926;-71
2022/12/07 07:31:26;;;;;;;;;;;3.20;99.90;;;;;;5010729;28;19932;-72
2022/12/07 07:33:52;;;;;;;;;;;3.30;99.90;;;;;;5043921;28;19925;-72
2022/12/07 07:36:18;;;;;;;;;;;3.50;99.90;;;;;;5044066;28;20032;-71
2022/12/07 07:38:43;;;;;;;;;;;3.40;99.90;;;;;;5060584;28;19937;-73
2022/12/07 07:41:09;;;;;;;;;;;3.40;99.90;;;;;;5043763;28;20053;-73
2022/12/07 07:43:34;;;;;;;;;;;3.40;99.90;;;;;;5044067;28;19946;-73
2022/12/07 07:46:00;;;;;;;;;;;3.50;99.90;;;;;;5060845;28;20019;-72
2022/12/07 07:48:25;;;;;;;;;;;3.40;99.90;;;;;;5028177;28;19925;-71
2022/12/07 07:50:51;;;;;;;;;;;3.60;99.90;;;;;;5028440;28;19932;-73
2022/12/07 07:53:17;;;;;;;;;;;3.40;99.90;;;;;;5028700;28;19933;-73
2022/12/07 07:55:50;;;;;;;;;;;3.30;99.90;;;;;;5028588;28;20386;-72
2022/12/07 07:58:16;;;;;;;;;;;3.30;99.90;;;;;;5028350;28;19925;-72
2022/12/07 08:00:41;;;;;;;;;;;3.30;99.90;;;;;;5011027;28;19929;-73
2022/12/07 08:03:07;;;;;;;;;;;3.20;99.90;;;;;;5028778;28;20381;-73
2022/12/07 08:05:32;;;;;;;;;;;3.30;99.90;;;;;;5028244;28;20346;-73
2022/12/07 08:07:58;;;;;;;;;;;3.20;99.90;;;;;;5043803;28;19948;-73
2022/12/07 08:10:23;;;;;;;;;;;3.20;99.90;;;;;;5045219;28;19935;-73
2022/12/07 08:15:36;;;;;;;;;;;3.10;99.90;;;;;;5047367;27;19932;-71
2022/12/07 08:18:01;;;;;;;;;;;3.00;99.90;;;;;;5032193;28;19972;-71
2022/12/07 08:20:29;;;;;;;;;;;3.10;99.90;;;;;;5031471;28;20377;-71
2022/12/07 08:22:54;;;;;;;;;;;3.10;99.90;;;;;;5031845;28;20021;-71
2022/12/07 08:25:21;;;;;;;;;;;3.10;99.90;;;;;;5047585;28;19974;-71
2022/12/07 08:27:47;;;;;;;;;;;3.10;99.90;;;;;;5046856;28;19981;-71
2022/12/07 08:30:13;;;;;;;;;;;3.20;99.90;;;;;;5047491;28;19925;-72
2022/12/07 08:32:38;;;;;;;;;;;3.10;99.90;;;;;;5047071;28;19925;-71
2022/12/07 08:35:04;;;;;;;;;;;3.10;99.90;;;;;;5046712;28;19925;-73
2022/12/07 08:37:30;;;;;;;;;;;3.10;99.90;;;;;;5030149;28;20279;-72
2022/12/07 08:39:56;;;;;;;;;;;3.20;99.90;;;;;;5013630;28;19977;-71
2022/12/07 08:42:23;;;;;;;;;;;3.30;99.90;;;;;;5013879;28;20440;-72
2022/12/07 08:44:48;;;;;;;;;;;3.30;99.90;;;;;;5029831;28;19931;-71
2022/12/07 08:47:14;;;;;;;;;;;3.40;99.90;;;;;;5031506;28;20259;-71
2022/12/07 08:49:41;;;;;;;;;;;3.30;99.90;;;;;;5031057;28;19925;-72
2022/12/07 08:52:07;;;;;;;;;;;3.30;99.90;;;;;;5030557;28;19925;-73
2022/12/07 08:54:34;;;;;;;;;;;3.30;99.90;;;;;;5031135;28;20043;-72
2022/12/07 08:56:59;;;;;;;;;;;3.40;99.90;;;;;;4997673;28;19931;-72
2022/12/07 08:59:25;;;;;;;;;;;3.40;99.90;;;;;;5031096;28;20016;-72
2022/12/07 09:01:51;;;;;;;;;;;3.50;99.90;;;;;;5046653;28;19929;-72
2022/12/07 09:04:16;;;;;;;;;;;3.60;99.90;;;;;;5063629;28;19929;-70
2022/12/07 09:06:42;;;;;;;;;;;3.60;99.90;;;;;;5029706;28;19925;-71
2022/12/07 09:09:08;;;;;;;;;;;3.80;99.90;;;;;;5030944;28;19925;-72
2022/12/07 09:11:34;;;;;;;;;;;3.80;99.90;;;;;;5030793;28;19925;-70
2022/12/07 09:13:59;;;;;;;;;;;3.90;99.90;;;;;;5046807;28;19925;-71
2022/12/07 09:16:25;;;;;;;;;;;3.90;99.90;;;;;;5031227;28;19925;-71
2022/12/07 09:18:51;;;;;;;;;;;3.90;99.90;;;;;;5029630;28;19926;-70
2022/12/07 09:21:16;;;;;;;;;;;4.10;99.90;;;;;;5062299;28;19959;-71
2022/12/07 09:23:42;;;;;;;;;;;4.20;99.90;;;;;;5030499;28;19948;-71
2022/12/07 09:26:08;;;;;;;;;;;4.30;99.90;;;;;;5013746;28;19968;-72
2022/12/07 09:28:33;;;;;;;;;;;4.40;99.90;;;;;;5046394;28;20366;-70
2022/12/07 09:30:59;;;;;;;;;;;4.50;99.90;;;;;;5030864;28;19921;-71
2022/12/07 09:33:25;;;;;;;;;;;4.60;99.90;;;;;;5030919;28;19931;-72
2022/12/07 09:35:51;;;;;;;;;;;4.60;99.90;;;;;;5030520;28;19936;-70
2022/12/07 09:38:17;;;;;;;;;;;4.70;99.90;;;;;;5046079;28;19933;-70
2022/12/07 09:40:43;;;;;;;;;;;4.90;99.90;;;;;;5030541;28;20072;-70
2022/12/07 09:43:16;;;;;;;;;;;4.70;99.90;;;;;;5013339;28;19925;-70
2022/12/07 09:45:43;;;;;;;;;;;4.70;99.90;;;;;;5030312;28;19925;-69
2022/12/07 09:48:42;;;;;;;;;;;4.80;99.90;;;;;;5013282;28;19925;-71
2022/12/07 09:51:16;;;;;;;;;;;4.80;99.90;;;;;;5023265;28;20533;-71
2022/12/07 09:53:42;;;;;;;;;;;4.90;99.90;;;;;;5044712;28;20007;-70
2022/12/07 09:56:11;;;;;;;;;;;4.90;99.90;;;;;;5010672;28;19969;-71
2022/12/07 09:58:37;;;;;;;;;;;4.90;99.90;;;;;;5044798;28;19925;-71
2022/12/07 10:01:12;;;;;;;;;;;4.90;99.90;;;;;;5012162;28;19921;-71
2022/12/07 10:03:39;;;;;;;;;;;4.90;99.90;;;;;;5011806;28;19932;-70
2022/12/07 10:06:05;;;;;;;;;;;4.90;99.90;;;;;;5029939;28;20332;-71
2022/12/07 10:08:31;;;;;;;;;;;4.80;99.90;;;;;;5045543;28;20338;-71
2022/12/07 10:10:57;;;;;;;;;;;4.80;99.90;;;;;;5030176;28;19925;-73
2022/12/07 10:13:33;;;;;;;;;;;4.90;99.90;;;;;;5030107;28;19925;-72
2022/12/07 10:15:59;;;;;;;;;;;5.00;99.90;;;;;;5012432;28;19925;-74
2022/12/07 10:18:31;;;;;;;;;;;5.00;99.90;;;;;;5030227;28;19936;-71
2022/12/07 10:21:05;;;;;;;;;;;5.10;99.90;;;;;;5029191;28;19925;-71
2022/12/07 10:23:31;;;;;;;;;;;5.10;99.90;;;;;;5045577;28;20294;-70
2022/12/07 10:25:56;;;;;;;;;;;5.10;99.90;;;;;;5044450;28;19925;-71
2022/12/07 10:28:22;;;;;;;;;;;5.10;99.90;;;;;;5028133;28;20476;-71
2022/12/07 10:30:50;;;;;;;;;;;5.10;99.90;;;;;;5022982;28;20375;-70
2022/12/07 10:33:29;;;;;;;;;;;5.20;99.90;;;;;;5062054;28;19932;-74
2022/12/07 10:35:55;;;;;;;;;;;5.20;99.90;;;;;;4995911;28;20005;-71
2022/12/07 10:38:21;;;;;;;;;;;5.30;99.90;;;;;;5029311;28;20027;-71
2022/12/07 10:40:46;;;;;;;;;;;5.40;99.90;;;;;;5044436;28;19926;-71
2022/12/07 10:43:12;;;;;;;;;;;5.40;99.90;;;;;;5012394;28;19997;-71
2022/12/07 10:45:50;;;;;;;;;;;5.40;99.90;;;;;;5043596;28;19921;-71
2022/12/07 10:48:40;;;;;;;;;;;5.40;99.90;;;;;;5027607;28;19925;-71
2022/12/07 10:51:20;;;;;;;;;;;5.50;99.90;;;;;;5025207;28;19921;-71
2022/12/07 10:53:52;;;;;;;;;;;5.50;99.90;;;;;;5043786;28;20373;-71
2022/12/07 10:56:26;;;;;;;;;;;5.40;99.90;;;;;;5040614;28;19936;-72
2022/12/07 10:58:58;;;;;;;;;;;5.40;99.90;;;;;;5040539;28;19925;-72
2022/12/07 11:01:44;;;;;;;;;;;5.40;99.90;;;;;;5010029;28;19933;-72
2022/12/07 11:04:28;;;;;;;;;;;5.30;99.90;;;;;;5011595;28;20277;-72
2022/12/07 11:07:12;;;;;;;;;;;5.20;99.90;;;;;;5044413;28;20377;-73
2022/12/07 11:09:50;;;;;;;;;;;5.10;99.90;;;;;;5044714;28;19932;-72
2022/12/07 11:12:17;;;;;;;;;;;5.10;99.90;;;;;;5029307;28;19973;-72
2022/12/07 11:15:01;;;;;;;;;;;5.10;99.90;;;;;;5029333;28;19976;-71
2022/12/07 11:17:42;;;;;;;;;;;5.10;99.90;;;;;;5045112;28;19925;-71
2022/12/07 11:20:14;;;;;;;;;;;5.10;99.90;;;;;;5011186;28;19925;-72
2022/12/07 11:23:03;;;;;;;;;;;5.10;99.90;;;;;;5044502;28;20032;-71
2022/12/07 11:25:33;;;;;;;;;;;5.10;99.90;;;;;;5012060;28;19975;-70
2022/12/07 11:28:17;;;;;;;;;;;5.10;99.90;;;;;;5044578;28;19933;-70
2022/12/07 11:30:46;;;;;;;;;;;5.00;99.90;;;;;;5011807;28;19925;-70
2022/12/07 11:33:25;;;;;;;;;;;5.00;99.90;;;;;;5028910;28;19969;-69
2022/12/07 11:36:10;;;;;;;;;;;5.10;99.90;;;;;;5044636;28;19951;-69
2022/12/07 11:38:45;;;;;;;;;;;5.10;99.90;;;;;;5027964;28;19929;-71
2022/12/07 11:41:12;;;;;;;;;;;5.10;99.90;;;;;;5043940;28;19929;-70
2022/12/07 11:43:44;;;;;;;;;;;5.20;99.90;;;;;;5028214;28;20016;-70
2022/12/07 11:46:12;;;;;;;;;;;5.30;99.90;;;;;;5046402;28;20405;-69
2022/12/07 11:48:51;;;;;;;;;;;5.30;99.90;;;;;;4999087;28;19925;-69
2022/12/07 11:51:20;;;;;;;;;;;5.30;99.90;;;;;;5047928;28;20392;-70
2022/12/07 11:53:46;;;;;;;;;;;5.60;99.90;;;;;;5015021;28;20417;-70
2022/12/07 11:56:16;;;;;;;;;;;5.40;99.90;;;;;;5047876;28;20118;-71
2022/12/07 11:58:50;;;;;;;;;;;5.40;99.90;;;;;;5032187;28;20370;-69
2022/12/07 12:01:28;;;;;;;;;;;5.30;99.90;;;;;;5030934;28;20383;-71
2022/12/07 12:03:57;;;;;;;;;;;5.30;99.90;;;;;;5047943;28;20015;-69
2022/12/07 12:06:23;;;;;;;;;;;5.30;99.90;;;;;;5047958;28;19931;-72
2022/12/07 12:08:54;;;;;;;;;;;5.40;99.90;;;;;;5064325;28;20305;-70
2022/12/07 12:11:31;;;;;;;;;;;5.30;99.90;;;;;;5047691;28;19972;-70
2022/12/07 12:13:56;;;;;;;;;;;5.30;99.90;;;;;;5047460;28;20386;-69
2022/12/07 12:16:25;;;;;;;;;;;5.30;99.90;;;;;;5032273;28;19925;-69
2022/12/07 12:18:54;;;;;;;;;;;5.20;99.90;;;;;;5032066;28;19929;-69
2022/12/07 12:21:26;;;;;;;;;;;5.20;99.90;;;;;;5047195;28;19929;-69
2022/12/07 12:23:57;;;;;;;;;;;5.20;99.90;;;;;;5047438;28;19927;-69
2022/12/07 12:26:25;;;;;;;;;;;5.20;99.90;;;;;;5032022;28;20021;-70
2022/12/07 12:28:56;;;;;;;;;;;5.20;99.90;;;;;;5047528;28;19929;-70
2022/12/07 12:31:22;;;;;;;;;;;5.20;99.90;;;;;;5031791;28;19921;-71
2022/12/07 12:33:52;;;;;;;;;;;5.20;99.90;;;;;;5047045;28;19925;-73
2022/12/07 12:36:24;;;;;;;;;;;5.20;99.90;;;;;;5047315;28;19976;-74
2022/12/07 12:39:10;;;;;;;;;;;5.20;99.90;;;;;;5047415;28;19932;-69
2022/12/07 12:42:05;;;;;;;;;;;5.20;99.90;;;;;;5013818;28;20343;-69
2022/12/07 12:44:33;;;;;;;;;;;5.30;99.90;;;;;;5013831;28;19932;-70
2022/12/07 12:47:00;;;;;;;;;;;5.30;99.90;;;;;;5047435;28;20486;-71
2022/12/07 12:49:25;;;;;;;;;;;5.30;99.90;;;;;;5014014;28;20286;-71
2022/12/07 12:51:56;;;;;;;;;;;5.40;99.90;;;;;;5047153;28;19932;-71
2022/12/07 12:54:23;;;;;;;;;;;5.40;99.90;;;;;;5031148;28;19968;-71
2022/12/07 12:56:48;;;;;;;;;;;5.40;99.90;;;;;;5047116;28;19987;-71
2022/12/07 12:59:26;;;;;;;;;;;5.40;99.90;;;;;;5046838;28;19980;-71
2022/12/07 13:02:15;;;;;;;;;;;5.30;99.90;;;;;;5047192;28;19926;-70
2022/12/07 13:04:53;;;;;;;;;;;5.30;99.90;;;;;;5021476;28;20434;-70
2022/12/07 13:07:37;;;;;;;;;;;5.20;99.90;;;;;;5031040;28;19933;-73
2022/12/07 13:10:03;;;;;;;;;;;5.20;99.90;;;;;;5046561;28;19994;-73
2022/12/07 13:12:30;;;;;;;;;;;5.10;99.90;;;;;;5030807;28;20288;-71
2022/12/07 13:14:57;;;;;;;;;;;5.10;99.90;;;;;;5028269;28;19925;-71
2022/12/07 13:17:31;;;;;;;;;;;5.10;99.90;;;;;;5009950;28;20280;-71
2022/12/07 13:20:06;;;;;;;;;;;5.00;99.90;;;;;;5045743;28;19933;-71
2022/12/07 13:22:37;;;;;;;;;;;5.10;99.90;;;;;;5012685;28;19925;-72
2022/12/07 13:25:07;;;;;;;;;;;5.00;99.90;;;;;;5031017;28;20019;-71
2022/12/07 13:27:34;;;;;;;;;;;5.00;99.90;;;;;;5011044;28;19925;-71
2022/12/07 13:30:00;;;;;;;;;;;5.00;99.90;;;;;;5044483;28;20362;-71
2022/12/07 13:32:28;;;;;;;;;;;5.00;99.90;;;;;;5030524;28;19925;-70
2022/12/07 13:34:53;;;;;;;;;;;4.90;99.90;;;;;;5013521;28;19983;-72
2022/12/07 13:37:32;;;;;;;;;;;5.10;99.90;;;;;;5029504;28;19969;-72
2022/12/07 13:40:12;;;;;;;;;;;4.90;99.90;;;;;;5030496;28;20356;-72
2022/12/07 13:42:37;;;;;;;;;;;4.80;99.90;;;;;;5010850;28;19998;-70
2022/12/07 13:45:47;;;;;;;;;;;4.70;99.90;;;;;;5030327;28;19925;-71
2022/12/07 13:48:13;;;;;;;;;;;4.70;99.90;;;;;;5030708;28;19925;-72
2022/12/07 13:50:39;;;;;;;;;;;4.60;99.90;;;;;;5030463;28;19925;-71
2022/12/07 13:53:11;;;;;;;;;;;4.50;99.90;;;;;;5045812;28;19925;-71
2022/12/07 13:55:43;;;;;;;;;;;4.50;99.90;;;;;;5045797;28;19972;-71
2022/12/07 13:58:09;;;;;;;;;;;4.50;99.90;;;;;;5028912;28;19933;-71
2022/12/07 14:00:35;;;;;;;;;;;4.40;99.90;;;;;;5045300;28;20289;-71
2022/12/07 14:03:02;;;;;;;;;;;4.40;99.90;;;;;;5045695;28;19933;-71
2022/12/07 14:05:32;;;;;;;;;;;4.30;99.90;;;;;;5012385;28;20281;-70
2022/12/07 14:08:03;;;;;;;;;;;4.30;99.90;;;;;;5043955;28;19925;-70
2022/12/07 14:10:30;;;;;;;;;;;4.20;99.90;;;;;;5045810;27;19926;-71
2022/12/07 14:12:56;;;;;;;;;;;4.10;99.90;;;;;;5022167;28;20380;-71
2022/12/07 14:15:23;;;;;;;;;;;4.20;99.90;;;;;;4989055;28;20329;-71
2022/12/07 14:17:49;;;;;;;;;;;4.10;99.90;;;;;;4990053;28;20003;-70
2022/12/07 14:20:31;;;;;;;;;;;4.20;99.90;;;;;;5021769;28;19971;-71
2022/12/07 14:22:57;;;;;;;;;;;4.10;99.90;;;;;;4990853;28;19926;-70
2022/12/07 14:25:26;;;;;;;;;;;4.00;99.90;;;;;;4990492;28;19926;-70
2022/12/07 14:27:59;;;;;;;;;;;4.00;99.90;;;;;;4990723;28;19933;-70
2022/12/07 14:30:26;;;;;;;;;;;4.00;99.90;;;;;;5005914;28;20376;-71
2022/12/07 14:32:54;;;;;;;;;;;4.00;99.90;;;;;;4989704;28;19926;-71
2022/12/07 14:35:20;;;;;;;;;;;4.00;99.90;;;;;;5022178;28;19933;-70
2022/12/07 14:37:47;;;;;;;;;;;4.00;99.90;;;;;;5022598;28;19930;-70
2022/12/07 14:40:16;;;;;;;;;;;4.10;99.90;;;;;;4989245;28;19977;-71
2022/12/07 14:42:43;;;;;;;;;;;4.00;99.90;;;;;;5022126;28;20337;-72
2022/12/07 14:45:26;;;;;;;;;;;4.10;99.90;;;;;;4991015;28;20286;-71
2022/12/07 14:47:51;;;;;;;;;;;4.00;99.90;;;;;;5022012;28;20391;-71